createdAt,value
2023-02-22T00:01:36.021Z,1.93
2023-02-22T00:04:06.210Z,1.91
2023-02-22T00:06:33.836Z,1.88
2023-02-22T00:09:04.349Z,1.85
2023-02-22T00:11:31.373Z,1.82
2023-02-22T00:13:58.472Z,1.80
2023-02-22T00:16:27.244Z,1.78
2023-02-22T00:18:54.445Z,1.78
2023-02-22T00:21:25.048Z,1.78
2023-02-22T00:23:54.083Z,1.77
2023-02-22T00:26:22.883Z,1.78
2023-02-22T00:28:52.832Z,1.76
2023-02-22T00:31:21.631Z,1.74
2023-02-22T00:33:50.789Z,1.72
2023-02-22T00:36:18.184Z,1.70
2023-02-22T00:38:45.194Z,1.68
2023-02-22T00:41:12.527Z,1.65
2023-02-22T00:43:40.973Z,1.62
2023-02-22T00:46:08.285Z,1.60
2023-02-22T00:48:37.069Z,1.58
2023-02-22T00:51:04.462Z,1.56
2023-02-22T00:53:31.790Z,1.56
2023-02-22T00:55:59.047Z,1.56
2023-02-22T00:58:28.417Z,1.57
2023-02-22T01:00:56.794Z,1.58
2023-02-22T01:03:23.938Z,1.57
2023-02-22T01:05:55.618Z,1.57
2023-02-22T01:08:24.629Z,1.57
2023-02-22T01:10:52.196Z,1.57
2023-02-22T01:13:21.158Z,1.56
2023-02-22T01:15:48.452Z,1.56
2023-02-22T01:18:16.777Z,1.56
2023-02-22T01:20:47.564Z,1.56
2023-02-22T01:23:16.857Z,1.55
2023-02-22T01:25:45.714Z,1.55
2023-02-22T01:28:15.148Z,1.54
2023-02-22T01:30:45.745Z,1.54
2023-02-22T01:33:15.084Z,1.53
2023-02-22T01:35:43.021Z,1.53
2023-02-22T01:38:10.273Z,1.52
2023-02-22T01:40:41.481Z,1.50
2023-02-22T01:43:19.281Z,1.47
2023-02-22T01:46:20.637Z,1.44
2023-02-22T01:49:02.477Z,1.40
2023-02-22T01:51:38.631Z,1.37
2023-02-22T01:54:17.920Z,1.32
2023-02-22T01:56:57.167Z,1.29
2023-02-22T01:59:24.817Z,1.26
2023-02-22T02:01:52.010Z,1.22
2023-02-22T02:04:24.961Z,1.19
2023-02-22T02:07:03.536Z,1.17
2023-02-22T02:09:43.316Z,1.16
2023-02-22T02:12:14.204Z,1.13
2023-02-22T02:14:44.095Z,1.10
2023-02-22T02:17:14.916Z,1.09
2023-02-22T02:20:07.958Z,1.09
2023-02-22T02:22:54.685Z,1.08
2023-02-22T02:25:55.659Z,1.07
2023-02-22T02:28:25.879Z,1.04
2023-02-22T02:31:05.231Z,1.02
2023-02-22T02:34:04.233Z,0.98
2023-02-22T02:37:07.949Z,0.95
2023-02-22T02:39:43.147Z,0.91
2023-02-22T02:42:17.430Z,0.86
2023-02-22T02:45:08.318Z,0.79
2023-02-22T02:47:41.913Z,0.70
2023-02-22T02:50:24.168Z,0.63
2023-02-22T02:52:55.203Z,0.53
2023-02-22T02:55:23.164Z,0.44
2023-02-22T02:57:50.046Z,0.36
2023-02-22T03:00:26.174Z,0.29
2023-02-22T03:03:30.643Z,0.24
2023-02-22T03:06:15.801Z,0.24
2023-02-22T03:08:53.258Z,0.25
2023-02-22T03:11:35.319Z,0.23
2023-02-22T03:14:24.744Z,0.20
2023-02-22T03:17:13.019Z,0.17
2023-02-22T03:19:49.656Z,0.13
2023-02-22T03:22:34.383Z,0.08
2023-02-22T03:25:07.402Z,0.01
2023-02-22T03:27:48.869Z,-0.05
2023-02-22T03:30:55.430Z,-0.10
2023-02-22T03:33:33.260Z,-0.16
2023-02-22T03:36:11.781Z,-0.20
2023-02-22T03:38:42.204Z,-0.23
2023-02-22T03:41:15.872Z,-0.22
2023-02-22T03:43:48.504Z,-0.21
2023-02-22T03:46:18.853Z,-0.21
2023-02-22T03:49:06.539Z,-0.23
2023-02-22T03:51:36.389Z,-0.25
2023-02-22T03:54:04.389Z,-0.27
2023-02-22T03:56:52.689Z,-0.27
2023-02-22T03:59:26.759Z,-0.26
2023-02-22T04:01:56.371Z,-0.26
2023-02-22T04:04:24.869Z,-0.28
2023-02-22T04:06:52.999Z,-0.31
2023-02-22T04:09:22.712Z,-0.32
2023-02-22T04:11:49.803Z,-0.33
2023-02-22T04:14:16.816Z,-0.35
2023-02-22T04:16:43.919Z,-0.37
2023-02-22T04:19:10.879Z,-0.38
2023-02-22T04:21:39.137Z,-0.41
2023-02-22T04:24:11.466Z,-0.43
2023-02-22T04:26:40.448Z,-0.46
2023-02-22T04:29:08.001Z,-0.49
2023-02-22T04:31:38.635Z,-0.53
2023-02-22T04:34:06.304Z,-0.56
2023-02-22T04:36:37.523Z,-0.56
2023-02-22T04:39:04.887Z,-0.58
2023-02-22T04:41:32.842Z,-0.60
2023-02-22T04:43:59.869Z,-0.63
2023-02-22T04:46:28.259Z,-0.68
2023-02-22T04:48:57.273Z,-0.74
2023-02-22T04:51:26.355Z,-0.81
2023-02-22T04:54:06.373Z,-0.86
2023-02-22T04:56:36.568Z,-0.89
2023-02-22T04:59:05.979Z,-0.92
2023-02-22T05:01:35.396Z,-0.95
2023-02-22T05:04:07.574Z,-0.99
2023-02-22T05:06:34.875Z,-1.02
2023-02-22T05:09:02.897Z,-1.08
2023-02-22T05:11:29.941Z,-1.12
2023-02-22T05:13:56.991Z,-1.20
2023-02-22T05:16:24.648Z,-1.25
2023-02-22T05:18:52.025Z,-1.30
2023-02-22T05:21:19.125Z,-1.31
2023-02-22T05:23:46.200Z,-1.31
2023-02-22T05:26:13.735Z,-1.27
2023-02-22T05:28:42.094Z,-1.22
2023-02-22T05:31:09.122Z,-1.17
2023-02-22T05:33:36.552Z,-1.10
2023-02-22T05:36:07.215Z,-1.06
2023-02-22T05:38:42.657Z,-1.03
2023-02-22T05:41:13.471Z,-1.00
2023-02-22T05:43:40.814Z,-0.95
2023-02-22T05:46:08.408Z,-0.93
2023-02-22T05:48:36.157Z,-0.94
2023-02-22T05:51:05.007Z,-0.95
2023-02-22T05:53:32.071Z,-0.98
2023-02-22T05:56:03.435Z,-0.99
2023-02-22T05:58:30.634Z,-0.97
2023-02-22T06:00:57.619Z,-0.94
2023-02-22T06:03:25.108Z,-0.92
2023-02-22T06:05:52.063Z,-0.89
2023-02-22T06:08:20.079Z,-0.87
2023-02-22T06:10:50.556Z,-0.84
2023-02-22T06:13:19.427Z,-0.82
2023-02-22T06:15:47.514Z,-0.82
2023-02-22T06:18:14.732Z,-0.85
2023-02-22T06:20:41.659Z,-0.91
2023-02-22T06:23:08.811Z,-0.98
2023-02-22T06:25:36.980Z,-1.03
2023-02-22T06:28:04.304Z,-1.06
2023-02-22T06:30:31.683Z,-1.04
2023-02-22T06:32:58.720Z,-1.01
2023-02-22T06:35:25.857Z,-0.98
2023-02-22T06:37:54.143Z,-0.94
2023-02-22T06:40:21.161Z,-0.91
2023-02-22T06:42:49.054Z,-0.90
2023-02-22T06:45:17.694Z,-0.92
2023-02-22T06:47:45.200Z,-0.97
2023-02-22T06:50:21.959Z,-1.01
2023-02-22T06:52:49.312Z,-1.05
2023-02-22T06:55:22.630Z,-1.04
2023-02-22T06:57:51.163Z,-1.00
2023-02-22T07:00:21.118Z,-0.96
2023-02-22T07:02:48.516Z,-0.91
2023-02-22T07:05:20.102Z,-0.90
2023-02-22T07:07:54.954Z,-0.88
2023-02-22T07:10:28.303Z,-0.92
2023-02-22T07:13:02.035Z,-1.05
2023-02-22T07:15:30.807Z,-1.23
2023-02-22T07:17:58.326Z,-1.38
2023-02-22T07:20:28.299Z,-1.52
2023-02-22T07:22:56.521Z,-1.60
2023-02-22T07:25:23.759Z,-1.65
2023-02-22T07:27:52.025Z,-1.65
2023-02-22T07:30:27.366Z,-1.67
2023-02-22T07:32:55.405Z,-1.64
2023-02-22T07:35:29.716Z,-1.59
2023-02-22T07:37:59.526Z,-1.54
2023-02-22T07:40:26.803Z,-1.48
2023-02-22T07:42:59.019Z,-1.38
2023-02-22T07:45:32.070Z,-1.23
2023-02-22T07:48:01.227Z,-1.06
2023-02-22T07:50:30.634Z,-0.94
2023-02-22T07:53:00.376Z,-0.81
2023-02-22T07:55:30.861Z,-0.67
2023-02-22T07:58:01.499Z,-0.59
2023-02-22T08:00:39.786Z,-0.62
2023-02-22T08:03:10.722Z,-0.83
2023-02-22T08:05:40.057Z,-0.98
2023-02-22T08:08:08.484Z,-0.99
2023-02-22T08:10:35.965Z,-0.85
2023-02-22T08:13:04.777Z,-0.74
2023-02-22T08:15:36.609Z,-0.77
2023-02-22T08:18:08.835Z,-0.79
2023-02-22T08:20:38.221Z,-0.85
2023-02-22T08:23:07.273Z,-0.80
2023-02-22T08:25:35.019Z,-0.62
2023-02-22T08:28:10.884Z,-0.46
2023-02-22T08:30:42.840Z,-0.38
2023-02-22T08:33:13.877Z,-0.31
2023-02-22T08:35:41.114Z,-0.26
2023-02-22T08:38:17.308Z,-0.24
2023-02-22T08:40:45.064Z,-0.12
2023-02-22T08:43:13.410Z,-0.02
2023-02-22T08:45:40.566Z,0.01
2023-02-22T08:48:07.868Z,-0.00
2023-02-22T08:50:35.762Z,-0.00
2023-02-22T08:53:04.832Z,-0.05
2023-02-22T08:55:35.728Z,-0.12
2023-02-22T08:58:05.407Z,-0.27
2023-02-22T09:00:33.592Z,-0.43
2023-02-22T09:03:05.958Z,-0.47
2023-02-22T09:05:33.034Z,-0.39
2023-02-22T09:08:01.196Z,-0.35
2023-02-22T09:10:32.403Z,-0.26
2023-02-22T09:13:06.600Z,-0.12
2023-02-22T09:15:35.896Z,-0.11
2023-02-22T09:18:08.766Z,-0.18
2023-02-22T09:20:37.633Z,-0.24
2023-02-22T09:23:09.326Z,-0.17
2023-02-22T09:25:47.616Z,-0.06
2023-02-22T09:28:27.804Z,0.02
2023-02-22T09:30:57.834Z,-0.09
2023-02-22T09:33:25.551Z,-0.15
2023-02-22T09:35:52.587Z,-0.18
2023-02-22T09:38:24.366Z,-0.20
2023-02-22T09:41:08.471Z,-0.20
2023-02-22T09:43:50.550Z,-0.19
2023-02-22T09:46:34.251Z,-0.32
2023-02-22T09:49:06.919Z,-0.48
2023-02-22T09:51:48.771Z,-0.54
2023-02-22T09:54:42.924Z,-0.53
2023-02-22T09:57:17.624Z,-0.58
2023-02-22T10:00:16.656Z,-0.59
2023-02-22T10:02:51.985Z,-0.52
2023-02-22T10:05:27.548Z,-0.41
2023-02-22T10:08:09.622Z,-0.36
2023-02-22T10:10:46.664Z,-0.38
2023-02-22T10:13:30.119Z,-0.26
2023-02-22T10:16:05.956Z,-0.14
2023-02-22T10:18:54.509Z,-0.06
2023-02-22T10:21:50.771Z,0.04
2023-02-22T10:24:42.873Z,0.09
2023-02-22T10:27:20.113Z,-0.02
2023-02-22T10:30:25.037Z,-0.15
2023-02-22T10:33:18.707Z,-0.28
2023-02-22T10:35:47.264Z,-0.52
2023-02-22T10:38:19.915Z,-0.71
2023-02-22T10:40:56.536Z,-0.74
2023-02-22T10:43:25.335Z,-0.64
2023-02-22T10:45:55.890Z,-0.65
2023-02-22T10:48:28.178Z,-0.69
2023-02-22T10:51:01.475Z,-0.68
2023-02-22T10:53:29.632Z,-0.70
2023-02-22T10:56:09.855Z,-0.77
2023-02-22T10:58:51.774Z,-0.80
2023-02-22T11:01:25.615Z,-0.70
2023-02-22T11:04:04.152Z,-0.62
2023-02-22T11:06:34.672Z,-0.61
2023-02-22T11:09:17.566Z,-0.66
2023-02-22T11:11:47.609Z,-0.72
2023-02-22T11:14:28.188Z,-0.87
2023-02-22T11:16:57.765Z,-1.05
2023-02-22T11:19:30.842Z,-1.16
2023-02-22T11:22:14.291Z,-1.11
2023-02-22T11:24:52.651Z,-1.03
2023-02-22T11:27:27.822Z,-1.00
2023-02-22T11:30:08.163Z,-1.06
2023-02-22T11:32:44.246Z,-1.18
2023-02-22T11:35:28.246Z,-1.25
2023-02-22T11:38:32.221Z,-1.26
2023-02-22T11:41:14.051Z,-1.21
2023-02-22T11:43:43.552Z,-1.17
2023-02-22T11:46:16.598Z,-1.11
2023-02-22T11:49:12.272Z,-1.04
2023-02-22T11:52:16.276Z,-0.93
2023-02-22T11:55:36.306Z,-0.94
2023-02-22T11:58:53.636Z,-0.97
2023-02-22T12:01:36.466Z,-0.98
2023-02-22T12:04:32.677Z,-0.99
2023-02-22T12:07:21.618Z,-1.10
2023-02-22T12:09:58.213Z,-1.18
2023-02-22T12:12:39.923Z,-1.21
2023-02-22T12:15:15.654Z,-1.18
2023-02-22T12:18:21.639Z,-1.11
2023-02-22T12:21:00.646Z,-1.03
2023-02-22T12:23:41.146Z,-0.88
2023-02-22T12:26:22.497Z,-0.76
2023-02-22T12:29:06.133Z,-0.77
2023-02-22T12:31:52.811Z,-0.88
2023-02-22T12:34:43.150Z,-0.95
2023-02-22T12:37:12.769Z,-0.97
2023-02-22T12:39:53.488Z,-0.91
2023-02-22T12:42:50.110Z,-0.90
2023-02-22T12:45:42.409Z,-0.95
2023-02-22T12:48:42.872Z,-0.98
2023-02-22T12:51:25.478Z,-0.94
2023-02-22T12:54:30.871Z,-0.96
2023-02-22T12:57:23.228Z,-1.07
2023-02-22T12:59:55.601Z,-1.19
2023-02-22T13:02:39.153Z,-1.26
2023-02-22T13:05:12.994Z,-1.29
2023-02-22T13:07:46.961Z,-1.27
2023-02-22T13:10:30.791Z,-1.21
2023-02-22T13:13:10.670Z,-1.11
2023-02-22T13:15:44.094Z,-1.05
2023-02-22T13:18:47.489Z,-1.06
2023-02-22T13:21:29.533Z,-1.10
2023-02-22T13:24:05.478Z,-1.21
2023-02-22T13:26:47.049Z,-1.33
2023-02-22T13:29:22.640Z,-1.45
2023-02-22T13:32:11.855Z,-1.54
2023-02-22T13:34:56.285Z,-1.63
2023-02-22T13:37:51.075Z,-1.65
2023-02-22T13:40:42.232Z,-1.58
2023-02-22T13:43:21.106Z,-1.46
2023-02-22T13:46:31.499Z,-1.39
2023-02-22T13:49:10.935Z,-1.40
2023-02-22T13:52:07.867Z,-1.46
2023-02-22T13:54:46.073Z,-1.56
2023-02-22T13:57:26.750Z,-1.70
2023-02-22T14:00:15.469Z,-1.79
2023-02-22T14:03:08.552Z,-1.75
2023-02-22T14:05:44.679Z,-1.70
2023-02-22T14:08:21.255Z,-1.74
2023-02-22T14:11:18.088Z,-1.83
2023-02-22T14:14:00.551Z,-1.93
2023-02-22T14:16:33.372Z,-2.01
2023-02-22T14:19:23.221Z,-2.10
2023-02-22T14:22:02.241Z,-2.20
2023-02-22T14:24:47.106Z,-2.30
2023-02-22T14:27:17.036Z,-2.37
2023-02-22T14:29:56.080Z,-2.43
2023-02-22T14:32:34.690Z,-2.50
2023-02-22T14:35:14.249Z,-2.55
2023-02-22T14:37:57.109Z,-2.59
2023-02-22T14:40:28.852Z,-2.61
2023-02-22T14:43:19.297Z,-2.62
2023-02-22T14:45:53.013Z,-2.68
2023-02-22T14:48:20.233Z,-2.73
2023-02-22T14:50:52.765Z,-2.76
2023-02-22T14:53:36.169Z,-2.81
2023-02-22T14:56:17.242Z,-2.86
2023-02-22T14:58:51.564Z,-2.91
2023-02-22T15:01:19.726Z,-2.96
2023-02-22T15:03:49.749Z,-3.02
2023-02-22T15:06:25.286Z,-3.08
2023-02-22T15:09:06.907Z,-3.14
2023-02-22T15:11:35.717Z,-3.21
2023-02-22T15:14:25.241Z,-3.28
2023-02-22T15:16:56.104Z,-3.37
2023-02-22T15:19:34.477Z,-3.43
2023-02-22T15:22:02.381Z,-3.49
2023-02-22T15:24:34.015Z,-3.54
2023-02-22T15:27:07.743Z,-3.57
2023-02-22T15:29:46.832Z,-3.62
2023-02-22T15:32:30.441Z,-3.64
2023-02-22T15:35:16.448Z,-3.66
2023-02-22T15:37:46.092Z,-3.67
2023-02-22T15:40:20.354Z,-3.67
2023-02-22T15:42:52.547Z,-3.70
2023-02-22T15:45:24.610Z,-3.73
2023-02-22T15:47:54.468Z,-3.76
2023-02-22T15:50:25.995Z,-3.77
2023-02-22T15:53:01.122Z,-3.80
2023-02-22T15:55:34.294Z,-3.85
2023-02-22T15:58:10.401Z,-3.89
2023-02-22T16:00:41.524Z,-3.92
2023-02-22T16:03:15.904Z,-3.95
2023-02-22T16:05:49.932Z,-3.97
2023-02-22T16:08:25.115Z,-3.98
2023-02-22T16:11:13.096Z,-3.99
2023-02-22T16:13:52.524Z,-4.00
2023-02-22T16:16:20.982Z,-4.00
2023-02-22T16:18:50.023Z,-4.01
2023-02-22T16:21:23.112Z,-4.01
2023-02-22T16:23:51.416Z,-4.03
2023-02-22T16:26:29.109Z,-4.04
2023-02-22T16:29:05.581Z,-4.06
2023-02-22T16:31:38.626Z,-4.09
2023-02-22T16:34:07.921Z,-4.12
2023-02-22T16:36:44.738Z,-4.14
2023-02-22T16:39:22.018Z,-4.16
2023-02-22T16:41:50.881Z,-4.18
2023-02-22T16:44:18.275Z,-4.20
2023-02-22T16:46:45.681Z,-4.19
2023-02-22T16:49:14.172Z,-4.17
2023-02-22T16:51:48.832Z,-4.15
2023-02-22T16:54:25.115Z,-4.12
2023-02-22T16:56:54.054Z,-4.11
2023-02-22T16:59:22.889Z,-4.11
2023-02-22T17:01:49.783Z,-4.12
2023-02-22T17:04:21.503Z,-4.12
2023-02-22T17:06:48.663Z,-4.14
2023-02-22T17:09:15.730Z,-4.18
2023-02-22T17:11:43.673Z,-4.21
2023-02-22T17:14:17.544Z,-4.25
2023-02-22T17:16:46.514Z,-4.29
2023-02-22T17:19:19.829Z,-4.32
2023-02-22T17:21:48.234Z,-4.33
2023-02-22T17:24:19.516Z,-4.32
2023-02-22T17:26:46.469Z,-4.32
2023-02-22T17:29:17.159Z,-4.30
2023-02-22T17:31:45.254Z,-4.26
2023-02-22T17:34:12.610Z,-4.22
2023-02-22T17:36:39.509Z,-4.19
2023-02-22T17:39:09.928Z,-4.16
2023-02-22T17:41:40.326Z,-4.14
2023-02-22T17:44:07.801Z,-4.13
2023-02-22T17:46:40.226Z,-4.14
2023-02-22T17:49:07.782Z,-4.15
2023-02-22T17:51:34.785Z,-4.18
2023-02-22T17:54:01.946Z,-4.21
2023-02-22T17:56:28.987Z,-4.23
2023-02-22T17:58:56.362Z,-4.24
2023-02-22T18:01:31.565Z,-4.26
2023-02-22T18:04:01.588Z,-4.25
2023-02-22T18:06:32.112Z,-4.23
2023-02-22T18:09:00.442Z,-4.23
2023-02-22T18:11:31.930Z,-4.23
2023-02-22T18:13:59.206Z,-4.24
2023-02-22T18:16:27.673Z,-4.25
2023-02-22T18:18:55.978Z,-4.25
2023-02-22T18:21:23.880Z,-4.26
2023-02-22T18:23:50.769Z,-4.27
2023-02-22T18:26:20.901Z,-4.28
2023-02-22T18:28:48.743Z,-4.27
2023-02-22T18:31:17.956Z,-4.27
2023-02-22T18:33:47.643Z,-4.25
2023-02-22T18:36:16.857Z,-4.23
2023-02-22T18:38:44.199Z,-4.22
2023-02-22T18:41:15.636Z,-4.22
2023-02-22T18:43:43.470Z,-4.23
2023-02-22T18:46:12.699Z,-4.24
2023-02-22T18:48:40.234Z,-4.27
2023-02-22T18:51:11.183Z,-4.31
2023-02-22T18:53:40.522Z,-4.35
2023-02-22T18:56:10.565Z,-4.40
2023-02-22T18:58:38.288Z,-4.44
2023-02-22T19:01:06.727Z,-4.50
2023-02-22T19:03:37.495Z,-4.54
2023-02-22T19:06:10.193Z,-4.57
2023-02-22T19:08:38.922Z,-4.59
2023-02-22T19:11:12.358Z,-4.60
2023-02-22T19:13:40.148Z,-4.59
2023-02-22T19:16:09.507Z,-4.56
2023-02-22T19:18:36.601Z,-4.56
2023-02-22T19:21:08.060Z,-4.58
2023-02-22T19:23:44.820Z,-4.59
2023-02-22T19:26:20.648Z,-4.59
2023-02-22T19:28:47.910Z,-4.59
2023-02-22T19:31:25.493Z,-4.59
2023-02-22T19:33:52.996Z,-4.57
2023-02-22T19:36:25.117Z,-4.51
2023-02-22T19:38:52.011Z,-4.44
2023-02-22T19:41:22.437Z,-4.36
2023-02-22T19:43:52.349Z,-4.31
2023-02-22T19:46:21.080Z,-4.26
2023-02-22T19:48:48.729Z,-4.19
2023-02-22T19:51:18.012Z,-4.12
2023-02-22T19:53:45.425Z,-4.08
2023-02-22T19:56:18.685Z,-4.06
2023-02-22T19:58:49.093Z,-4.05
2023-02-22T20:01:22.508Z,-4.04
2023-02-22T20:03:59.157Z,-4.06
2023-02-22T20:06:30.263Z,-4.06
2023-02-22T20:08:57.700Z,-4.06
2023-02-22T20:11:27.125Z,-4.07
2023-02-22T20:13:57.238Z,-4.12
2023-02-22T20:16:24.093Z,-4.17
2023-02-22T20:18:51.558Z,-4.22
2023-02-22T20:21:23.724Z,-4.29
2023-02-22T20:23:50.716Z,-4.36
2023-02-22T20:26:21.940Z,-4.43
2023-02-22T20:28:49.779Z,-4.50
2023-02-22T20:31:17.877Z,-4.55
2023-02-22T20:33:46.914Z,-4.59
2023-02-22T20:36:17.128Z,-4.62
2023-02-22T20:38:45.299Z,-4.66
2023-02-22T20:41:22.413Z,-4.71
2023-02-22T20:43:50.772Z,-4.79
2023-02-22T20:46:17.941Z,-4.84
2023-02-22T20:48:45.484Z,-4.90
2023-02-22T20:51:14.844Z,-4.97
2023-02-22T20:53:44.356Z,-5.04
2023-02-22T20:56:13.480Z,-5.11
2023-02-22T20:58:41.590Z,-5.18
2023-02-22T21:01:13.912Z,-5.25
2023-02-22T21:03:43.176Z,-5.30
2023-02-22T21:06:15.006Z,-5.37
2023-02-22T21:08:50.127Z,-5.41
2023-02-22T21:11:18.280Z,-5.44
2023-02-22T21:13:45.676Z,-5.48
2023-02-22T21:16:18.030Z,-5.54
2023-02-22T21:18:46.280Z,-5.59
2023-02-22T21:21:13.190Z,-5.65
2023-02-22T21:23:40.853Z,-5.70
2023-02-22T21:26:16.688Z,-5.74
2023-02-22T21:28:50.845Z,-5.76
2023-02-22T21:31:21.723Z,-5.81
2023-02-22T21:33:51.538Z,-5.85
2023-02-22T21:36:19.929Z,-5.88
2023-02-22T21:38:52.608Z,-5.91
2023-02-22T21:41:23.096Z,-5.95
2023-02-22T21:43:54.078Z,-6.00
2023-02-22T21:46:22.184Z,-6.04
2023-02-22T21:48:49.247Z,-6.09
2023-02-22T21:51:20.257Z,-6.14
2023-02-22T21:53:51.504Z,-6.18
2023-02-22T21:56:23.682Z,-6.22
2023-02-22T21:59:13.557Z,-6.25
2023-02-22T22:01:46.410Z,-6.26
2023-02-22T22:04:18.218Z,-6.27
2023-02-22T22:06:53.276Z,-6.29
2023-02-22T22:09:23.047Z,-6.29
2023-02-22T22:11:53.042Z,-6.28
2023-02-22T22:14:22.824Z,-6.25
2023-02-22T22:16:58.052Z,-6.24
2023-02-22T22:19:30.723Z,-6.23
2023-02-22T22:21:57.839Z,-6.21
2023-02-22T22:24:28.057Z,-6.18
2023-02-22T22:26:55.351Z,-6.20
2023-02-22T22:29:26.431Z,-6.23
2023-02-22T22:31:55.792Z,-6.23
2023-02-22T22:34:23.803Z,-6.24
2023-02-22T22:36:52.348Z,-6.31
2023-02-22T22:39:20.368Z,-6.35
2023-02-22T22:41:47.753Z,-6.39
2023-02-22T22:44:15.885Z,-6.42
2023-02-22T22:46:48.416Z,-6.40
2023-02-22T22:49:15.831Z,-6.39
2023-02-22T22:51:42.779Z,-6.41
2023-02-22T22:54:13.288Z,-6.42
2023-02-22T22:56:41.730Z,-6.49
2023-02-22T22:59:12.606Z,-6.56
2023-02-22T23:01:43.801Z,-6.65
2023-02-22T23:04:15.605Z,-6.73
2023-02-22T23:06:49.349Z,-6.77
2023-02-22T23:09:23.672Z,-6.76
2023-02-22T23:11:53.109Z,-6.76
2023-02-22T23:14:30.547Z,-6.77
2023-02-22T23:17:02.723Z,-6.78
2023-02-22T23:19:36.221Z,-6.85
2023-02-22T23:22:06.396Z,-6.91
2023-02-22T23:24:35.586Z,-6.96
2023-02-22T23:27:06.721Z,-7.00
2023-02-22T23:29:37.540Z,-7.05
2023-02-22T23:32:06.002Z,-7.08
2023-02-22T23:34:35.255Z,-7.09
2023-02-22T23:42:02.479Z,-7.13
2023-02-22T23:44:29.827Z,-7.17
2023-02-22T23:46:56.734Z,-7.20
2023-02-22T23:49:35.258Z,-7.23
2023-02-22T23:52:03.505Z,-7.26
2023-02-22T23:54:35.730Z,-7.26
2023-02-22T23:57:04.834Z,-7.29
2023-02-22T23:59:32.883Z,-7.39
